Time;durP1;ratioP1;P1;durP2;ratioP2;P2;SDS_P1;SDS_P2;PMS_P1;PMS_P2;Temp;Humidity;BMP_temperature;BMP_pressure;BME280_temperature;BME280_humidity;BME280_pressure;Samples;Min_cycle;Max_cycle;Signal;HPM_P1;HPM_P2
2022/06/23 00:00:06;;;;;;;3.58;2.40;;;15.40;96.80;;;;;;4229615;28;20535;-83
2022/06/23 00:02:26;;;;;;;3.65;2.13;;;15.40;96.90;;;;;;4231105;28;20065;-84
2022/06/23 00:04:32;;;;;;;3.40;2.30;;;15.30;97.00;;;;;;4213009;28;20508;-84
2022/06/23 00:06:40;;;;;;;4.82;2.05;;;15.30;96.90;;;;;;4229915;28;20071;-84
2022/06/23 00:08:46;;;;;;;3.90;1.90;;;15.40;97.00;;;;;;4230955;28;20047;-83
2022/06/23 00:10:59;;;;;;;2.80;2.20;;;15.30;97.00;;;;;;4230582;28;20069;-83
2022/06/23 00:13:00;;;;;;;6.80;2.00;;;15.30;97.10;;;;;;4230734;28;20480;-84
2022/06/23 00:15:01;;;;;;;2.92;2.10;;;15.20;97.00;;;;;;4229473;28;20515;-84
2022/06/23 00:17:21;;;;;;;2.63;2.00;;;15.20;97.00;;;;;;4229687;28;20057;-85
2022/06/23 00:19:22;;;;;;;3.60;2.35;;;15.20;97.40;;;;;;4230993;28;20389;-84
2022/06/23 00:21:31;;;;;;;2.95;2.35;;;15.20;97.20;;;;;;4212852;28;20082;-85
2022/06/23 00:23:36;;;;;;;4.10;2.30;;;15.20;97.30;;;;;;4229762;28;20070;-84
2022/06/23 00:25:54;;;;;;;3.53;1.95;;;15.10;97.20;;;;;;4229839;28;20523;-84
2022/06/23 00:27:56;;;;;;;2.80;2.03;;;15.10;97.40;;;;;;4230874;28;20044;-84
2022/06/23 00:30:01;;;;;;;3.88;2.35;;;15.10;97.20;;;;;;4230661;28;20044;-84
2022/06/23 00:32:04;;;;;;;3.35;2.47;;;15.10;97.40;;;;;;4230659;28;20035;-84
2022/06/23 00:34:38;;;;;;;2.60;1.83;;;15.00;97.40;;;;;;4215501;28;20082;-84
2022/06/23 00:37:02;;;;;;;3.70;2.13;;;15.00;97.60;;;;;;4221753;28;20087;-84
2022/06/23 00:39:39;;;;;;;3.58;2.13;;;15.00;97.60;;;;;;4233087;28;20043;-84
2022/06/23 00:41:42;;;;;;;4.05;2.38;;;14.90;97.70;;;;;;4231994;28;20436;-83
2022/06/23 00:43:48;;;;;;;4.15;2.53;;;14.90;97.60;;;;;;4232450;28;20062;-83
2022/06/23 00:46:12;;;;;;;3.10;2.60;;;14.90;97.70;;;;;;4198845;28;20122;-83
2022/06/23 00:48:29;;;;;;;3.80;2.70;;;14.90;98.10;;;;;;4216728;28;20040;-83
2022/06/23 00:50:44;;;;;;;2.65;2.00;;;14.90;98.10;;;;;;4215649;28;20048;-84
2022/06/23 00:52:52;;;;;;;3.95;3.00;;;14.90;98.10;;;;;;4216348;28;20401;-83
2022/06/23 00:54:56;;;;;;;4.95;2.13;;;14.90;98.20;;;;;;4215496;28;20048;-83
2022/06/23 00:57:13;;;;;;;4.13;2.83;;;14.80;98.40;;;;;;4216440;28;20044;-84
2022/06/23 00:59:28;;;;;;;4.00;2.67;;;14.80;98.60;;;;;;4198348;28;20468;-84
2022/06/23 01:01:29;;;;;;;3.42;2.55;;;14.80;98.90;;;;;;4215203;28;20044;-83
2022/06/23 01:03:37;;;;;;;3.35;2.72;;;14.80;98.80;;;;;;4198034;28;20045;-84
2022/06/23 01:05:42;;;;;;;3.45;2.80;;;14.70;99.10;;;;;;4216473;28;20085;-83
2022/06/23 01:07:56;;;;;;;3.83;2.55;;;14.70;99.10;;;;;;4216703;28;20083;-83
2022/06/23 01:10:11;;;;;;;2.88;2.17;;;14.70;99.60;;;;;;4216765;28;20115;-83
2022/06/23 01:12:42;;;;;;;3.22;2.40;;;14.70;99.40;;;;;;4216385;28;20048;-84
2022/06/23 01:14:53;;;;;;;6.38;2.70;;;14.70;99.90;;;;;;4216081;28;20051;-83
2022/06/23 01:17:03;;;;;;;5.07;2.33;;;14.70;99.60;;;;;;4216338;28;20111;-83
2022/06/23 01:19:24;;;;;;;4.55;2.95;;;14.60;99.90;;;;;;4215139;28;20052;-84
2022/06/23 01:21:31;;;;;;;5.18;3.08;;;14.30;99.80;;;;;;4215915;28;20075;-83
2022/06/23 01:23:41;;;;;;;4.65;3.00;;;14.60;99.90;;;;;;4216154;28;20434;-84
2022/06/23 01:26:04;;;;;;;3.65;2.58;;;14.60;99.90;;;;;;4198435;28;20060;-84
2022/06/23 01:28:21;;;;;;;4.43;2.83;;;14.50;99.90;;;;;;4214744;28;20048;-82
2022/06/23 01:30:29;;;;;;;4.25;2.67;;;14.30;99.90;;;;;;4214927;28;20036;-83
2022/06/23 01:32:36;;;;;;;4.20;2.70;;;14.50;99.90;;;;;;4215881;28;20059;-83
2022/06/23 01:34:43;;;;;;;3.97;2.55;;;14.50;99.90;;;;;;4216124;28;20044;-83
2022/06/23 01:36:54;;;;;;;4.18;2.70;;;14.50;99.90;;;;;;4214598;28;20047;-83
2022/06/23 01:39:14;;;;;;;3.65;2.85;;;14.50;99.90;;;;;;4215876;28;20101;-82
2022/06/23 01:41:42;;;;;;;3.65;2.90;;;14.50;99.90;;;;;;4215794;28;20488;-83
2022/06/23 01:44:32;;;;;;;3.80;3.00;;;14.40;99.90;;;;;;4214360;28;20040;-83
2022/06/23 01:46:40;;;;;;;7.50;3.45;;;14.40;99.90;;;;;;4195950;28;20063;-83
2022/06/23 01:48:52;;;;;;;4.47;3.10;;;14.40;99.90;;;;;;4197988;28;20056;-83
2022/06/23 01:50:53;;;;;;;6.18;3.45;;;14.30;99.90;;;;;;4214179;28;20101;-83
2022/06/23 01:53:16;;;;;;;5.40;3.42;;;14.30;99.90;;;;;;4214817;28;20035;-83
2022/06/23 01:55:24;;;;;;;5.32;3.50;;;14.30;99.90;;;;;;4214446;28;20044;-83
2022/06/23 01:57:24;;;;;;;3.85;2.92;;;14.30;99.90;;;;;;4214621;28;20101;-83
2022/06/23 01:59:45;;;;;;;4.75;2.72;;;14.30;99.90;;;;;;4214376;28;20052;-83
2022/06/23 02:02:14;;;;;;;9.52;3.13;;;14.30;99.90;;;;;;4214035;28;20097;-84
2022/06/23 02:04:42;;;;;;;3.75;2.78;;;14.30;99.90;;;;;;4214770;28;20127;-83
2022/06/23 02:06:53;;;;;;;5.93;3.95;;;14.30;99.90;;;;;;4214335;28;20048;-83
2022/06/23 02:09:05;;;;;;;6.72;3.22;;;14.20;99.90;;;;;;4214852;28;20381;-83
2022/06/23 02:11:15;;;;;;;4.80;3.13;;;14.20;99.90;;;;;;4213960;28;20428;-83
2022/06/23 02:13:34;;;;;;;4.97;3.22;;;14.20;99.90;;;;;;4214050;28;20048;-83
2022/06/23 02:16:05;;;;;;;4.25;3.10;;;14.20;99.90;;;;;;4213783;28;20097;-83
2022/06/23 02:18:33;;;;;;;4.28;3.00;;;14.20;99.90;;;;;;4215077;28;20049;-83
2022/06/23 02:20:43;;;;;;;4.90;3.08;;;14.20;99.90;;;;;;4215459;28;20519;-83
2022/06/23 02:22:46;;;;;;;5.05;2.88;;;14.10;99.90;;;;;;4214965;28;20056;-83
2022/06/23 02:24:53;;;;;;;5.70;3.33;;;14.10;99.90;;;;;;4214913;28;20036;-83
2022/06/23 02:27:17;;;;;;;5.45;2.72;;;14.10;99.90;;;;;;4215057;28;20040;-83
2022/06/23 02:29:25;;;;;;;4.68;3.13;;;14.10;99.90;;;;;;4215137;28;20047;-83
2022/06/23 02:32:01;;;;;;;6.28;3.17;;;14.00;99.90;;;;;;4214542;28;20123;-83
2022/06/23 02:34:43;;;;;;;5.07;3.42;;;14.00;99.90;;;;;;4215040;28;20051;-83
2022/06/23 02:37:08;;;;;;;4.80;3.22;;;14.00;99.90;;;;;;4214587;28;20598;-83
2022/06/23 02:39:24;;;;;;;4.15;3.05;;;13.90;99.90;;;;;;4215063;28;20544;-83
2022/06/23 02:41:35;;;;;;;5.78;3.35;;;13.90;99.90;;;;;;4215032;28;20090;-83
2022/06/23 02:43:37;;;;;;;4.97;3.33;;;13.90;99.90;;;;;;4214632;28;20389;-83
2022/06/23 02:45:46;;;;;;;4.90;3.00;;;13.90;99.90;;;;;;4226994;28;20052;-83
2022/06/23 02:47:57;;;;;;;6.40;3.38;;;13.90;99.90;;;;;;4232069;28;20043;-83
2022/06/23 02:50:08;;;;;;;11.52;3.75;;;13.90;99.90;;;;;;4231717;28;20412;-83
2022/06/23 02:52:39;;;;;;;7.82;3.38;;;13.80;99.90;;;;;;4231873;28;20043;-83
2022/06/23 02:55:15;;;;;;;4.65;3.08;;;13.80;99.90;;;;;;4231788;28;20055;-83
2022/06/23 02:57:39;;;;;;;5.80;3.80;;;13.70;99.90;;;;;;4231483;28;20433;-83
2022/06/23 03:00:01;;;;;;;4.70;3.30;;;13.70;99.90;;;;;;4231351;28;20083;-83
2022/06/23 03:02:25;;;;;;;5.03;3.22;;;13.70;99.90;;;;;;4231414;28;20462;-83
2022/06/23 03:04:34;;;;;;;9.40;3.20;;;13.70;99.90;;;;;;4231367;28;20093;-83
2022/06/23 03:06:45;;;;;;;4.88;3.40;;;13.70;99.90;;;;;;4230892;28;20054;-83
2022/06/23 03:08:57;;;;;;;5.68;3.42;;;13.70;99.90;;;;;;4230914;28;20046;-83
2022/06/23 03:11:02;;;;;;;5.22;3.30;;;13.70;99.90;;;;;;4231114;28;20464;-83
2022/06/23 03:13:35;;;;;;;6.80;3.40;;;13.70;99.90;;;;;;4231429;28;20062;-83
2022/06/23 03:15:45;;;;;;;4.60;2.90;;;13.70;99.90;;;;;;4225903;28;20047;-83
2022/06/23 03:17:48;;;;;;;;;;;13.60;99.90;;;;;;4231544;28;20051;-83
2022/06/23 03:20:28;;;;;;;6.18;3.75;;;13.60;99.90;;;;;;4219544;28;19927;-83
2022/06/23 03:22:36;;;;;;;4.57;3.10;;;13.60;99.90;;;;;;4213959;28;20044;-82
2022/06/23 03:24:47;;;;;;;5.22;3.58;;;13.60;99.90;;;;;;4214430;28;20404;-83
2022/06/23 03:26:59;;;;;;;4.68;3.55;;;13.60;99.90;;;;;;4214245;28;20123;-83
2022/06/23 03:29:18;;;;;;;6.75;3.75;;;13.50;99.90;;;;;;4212993;28;20055;-83
2022/06/23 03:31:43;;;;;;;5.47;3.40;;;13.50;99.90;;;;;;4214284;28;20083;-84
2022/06/23 03:34:06;;;;;;;6.05;3.30;;;13.50;99.90;;;;;;4213960;28;20298;-83
2022/06/23 03:36:28;;;;;;;3.85;2.65;;;13.40;99.90;;;;;;4203104;28;20058;-84
2022/06/23 03:43:33;;;;;;;3.30;2.17;;;13.30;99.90;;;;;;4214426;28;20052;-85
2022/06/23 03:45:48;;;;;;;3.22;2.20;;;13.20;99.90;;;;;;4214000;28;20051;-83
2022/06/23 03:48:17;;;;;;;6.07;3.28;;;13.20;99.90;;;;;;4214364;28;20581;-83
2022/06/23 03:50:58;;;;;;;4.88;3.13;;;13.30;99.90;;;;;;4214535;28;20404;-83
2022/06/23 03:53:07;;;;;;;5.50;3.08;;;13.20;99.90;;;;;;4222255;28;20051;-83
2022/06/23 03:55:19;;;;;;;4.57;2.80;;;13.20;99.90;;;;;;4215785;28;20812;-84
2022/06/23 03:57:43;;;;;;;7.25;3.53;;;13.20;99.90;;;;;;4214458;28;20122;-83
2022/06/23 04:00:17;;;;;;;7.00;4.50;;;13.20;99.90;;;;;;4214541;28;20055;-83
2022/06/23 04:02:24;;;;;;;9.05;4.28;;;13.20;99.90;;;;;;4214099;28;20129;-84
2022/06/23 04:04:47;;;;;;;6.72;4.40;;;13.30;99.90;;;;;;4214141;28;20048;-83
2022/06/23 04:06:50;;;;;;;8.85;5.13;;;13.30;99.90;;;;;;4212396;28;20066;-83
2022/06/23 04:09:06;;;;;;;7.30;4.18;;;13.30;99.90;;;;;;4216805;28;20075;-88
2022/06/23 04:13:34;;;;;;;11.75;5.07;;;13.50;99.90;;;;;;4223952;28;20044;-84
2022/06/23 04:15:39;;;;;;;7.32;4.20;;;13.50;99.90;;;;;;4234139;28;20040;-84
2022/06/23 04:18:04;;;;;;;10.88;5.22;;;13.60;99.90;;;;;;4225213;28;20105;-85
2022/06/23 04:20:19;;;;;;;7.35;4.43;;;13.70;99.90;;;;;;4230050;28;20046;-85
2022/06/23 04:22:57;;;;;;;12.18;5.90;;;13.70;99.90;;;;;;4233669;28;20507;-85
2022/06/23 04:25:01;;;;;;;7.65;4.45;;;13.70;99.90;;;;;;4228731;28;20435;-85
2022/06/23 04:27:11;;;;;;;10.73;5.38;;;13.80;99.90;;;;;;4215913;28;20079;-85
2022/06/23 04:29:24;;;;;;;9.52;5.60;;;13.80;99.90;;;;;;4228830;28;20044;-85
2022/06/23 04:31:28;;;;;;;11.57;4.93;;;13.80;99.90;;;;;;4216453;28;20079;-85
2022/06/23 04:33:30;;;;;;;9.20;4.63;;;13.80;99.90;;;;;;4217272;28;20040;-85
2022/06/23 04:35:35;;;;;;;9.63;5.65;;;13.90;99.90;;;;;;4198876;28;20084;-85
2022/06/23 04:37:48;;;;;;;10.18;5.35;;;13.90;99.90;;;;;;4217145;28;20040;-84
2022/06/23 04:39:58;;;;;;;8.00;4.45;;;13.90;99.90;;;;;;4216482;28;20044;-84
2022/06/23 04:42:21;;;;;;;11.82;5.22;;;14.00;99.90;;;;;;4216605;28;20423;-85
2022/06/23 04:44:34;;;;;;;11.23;4.93;;;14.00;99.90;;;;;;4216970;28;20091;-85
2022/06/23 04:46:46;;;;;;;8.32;4.70;;;14.10;99.90;;;;;;4216641;28;20043;-84
2022/06/23 04:48:56;;;;;;;8.55;4.95;;;14.10;99.90;;;;;;4216714;28;20051;-85
2022/06/23 04:51:24;;;;;;;8.57;4.70;;;14.20;99.90;;;;;;4216883;28;20043;-85
2022/06/23 04:53:40;;;;;;;8.60;4.75;;;14.30;99.90;;;;;;4214757;28;20044;-85
2022/06/23 04:55:42;;;;;;;9.43;5.05;;;14.30;99.90;;;;;;4216434;28;20044;-85
2022/06/23 04:57:53;;;;;;;9.05;4.88;;;14.40;99.90;;;;;;4215496;28;20051;-85
2022/06/23 04:59:57;;;;;;;8.30;4.43;;;14.40;99.90;;;;;;4215007;28;20059;-86
2022/06/23 05:02:01;;;;;;;8.27;4.90;;;14.50;99.90;;;;;;4215017;28;20123;-85
2022/06/23 05:04:11;;;;;;;7.53;4.25;;;14.50;99.90;;;;;;4216364;28;20071;-85
2022/06/23 05:06:38;;;;;;;8.77;4.57;;;14.60;99.90;;;;;;4216692;28;20094;-85
2022/06/23 05:08:42;;;;;;;9.68;5.00;;;14.40;99.90;;;;;;4214988;28;20048;-85
2022/06/23 05:10:56;;;;;;;7.18;4.47;;;14.60;99.90;;;;;;4215542;28;20044;-83
2022/06/23 05:13:05;;;;;;;10.50;5.05;;;14.70;99.90;;;;;;4216649;28;20654;-85
2022/06/23 05:15:25;;;;;;;8.10;4.68;;;14.80;99.90;;;;;;4215390;28;20055;-86
2022/06/23 05:17:31;;;;;;;9.65;5.57;;;14.90;99.90;;;;;;4215108;28;20404;-85
2022/06/23 05:19:35;;;;;;;9.95;4.85;;;14.90;99.90;;;;;;4215404;28;20565;-86
2022/06/23 05:21:43;;;;;;;9.90;4.70;;;15.00;99.90;;;;;;4215087;28;20135;-86
2022/06/23 05:23:50;;;;;;;11.25;5.40;;;15.10;99.90;;;;;;4216155;28;20377;-85
2022/06/23 05:25:54;;;;;;;8.68;5.18;;;15.20;99.90;;;;;;4216156;28;20052;-85
2022/06/23 05:27:55;;;;;;;11.68;5.60;;;15.20;99.90;;;;;;4198091;28;20417;-86
2022/06/23 05:30:07;;;;;;;10.20;5.22;;;15.30;99.90;;;;;;4215802;28;20036;-84
2022/06/23 05:32:24;;;;;;;10.98;5.43;;;15.30;99.90;;;;;;4215022;28;20044;-85
2022/06/23 05:34:30;;;;;;;11.70;5.43;;;15.40;99.90;;;;;;4214860;28;20056;-85
2022/06/23 05:36:42;;;;;;;9.63;5.95;;;15.50;99.90;;;;;;4198287;28;20053;-86
2022/06/23 05:38:57;;;;;;;8.95;5.32;;;15.60;99.90;;;;;;4197531;28;20520;-85
2022/06/23 05:41:02;;;;;;;10.90;6.40;;;15.70;99.90;;;;;;4216092;28;20052;-86
2022/06/23 05:43:03;;;;;;;9.55;5.88;;;15.80;99.90;;;;;;4216249;28;20055;-85
2022/06/23 05:45:13;;;;;;;9.52;5.55;;;15.80;99.90;;;;;;4216400;28;20047;-86
2022/06/23 05:47:18;;;;;;;10.38;5.80;;;15.40;99.90;;;;;;4215380;28;20451;-86
2022/06/23 05:49:20;;;;;;;8.88;5.80;;;16.00;99.90;;;;;;4214699;28;20063;-86
2022/06/23 05:51:30;;;;;;;11.07;5.68;;;16.00;99.90;;;;;;4215889;28;20056;-86
2022/06/23 05:53:36;;;;;;;;;;;16.10;99.90;;;;;;4216126;28;20036;-86
2022/06/23 05:55:48;;;;;;;9.05;5.50;;;16.20;99.90;;;;;;4215777;28;20307;-86
2022/06/23 06:00:59;;;;;;;9.18;5.85;;;16.30;99.90;;;;;;4207656;28;20087;-85
2022/06/23 06:03:02;;;;;;;9.05;5.57;;;16.40;99.90;;;;;;4209756;28;20106;-86
2022/06/23 06:05:04;;;;;;;9.63;5.82;;;16.50;99.90;;;;;;4215855;28;20044;-87
2022/06/23 06:07:05;;;;;;;9.13;5.88;;;16.60;99.90;;;;;;4214098;28;20056;-87
2022/06/23 06:11:31;;;;;;;11.32;6.10;;;16.70;99.90;;;;;;4214578;28;20052;-87
2022/06/23 06:13:43;;;;;;;8.23;5.78;;;16.80;99.90;;;;;;4215359;28;20048;-85
2022/06/23 06:15:49;;;;;;;12.85;5.97;;;16.80;99.90;;;;;;4215902;28;20111;-84
2022/06/23 06:17:53;;;;;;;13.57;6.13;;;16.90;99.90;;;;;;4216075;28;20043;-84
2022/06/23 06:19:55;;;;;;;16.95;6.20;;;17.00;99.90;;;;;;4213957;28;20097;-84
2022/06/23 06:21:59;;;;;;;12.40;6.72;;;17.00;99.90;;;;;;4215159;28;20044;-84
2022/06/23 06:24:01;;;;;;;13.48;6.05;;;;;;;;;;4215630;28;20048;-84
2022/06/23 06:26:03;;;;;;;9.95;5.95;;;17.10;99.90;;;;;;4215128;28;20060;-85
2022/06/23 06:28:10;;;;;;;10.35;6.38;;;;;;;;;;4215273;28;20051;-85
2022/06/23 06:30:16;;;;;;;11.65;5.95;;;17.30;99.90;;;;;;4213754;28;20471;-84
2022/06/23 06:32:46;;;;;;;10.00;5.70;;;17.50;99.90;;;;;;4215117;28;20044;-85
2022/06/23 06:34:58;;;;;;;9.68;5.43;;;17.60;99.90;;;;;;4212129;28;20087;-84
2022/06/23 06:36:59;;;;;;;10.68;5.68;;;17.60;99.90;;;;;;4214582;28;20139;-84
2022/06/23 06:39:06;;;;;;;10.00;5.60;;;17.70;99.90;;;;;;4216146;28;20398;-85
2022/06/23 06:41:09;;;;;;;9.55;5.93;;;17.80;99.90;;;;;;4215167;28;20047;-85
2022/06/23 06:43:13;;;;;;;12.63;5.85;;;;;;;;;;4214943;28;20119;-85
2022/06/23 06:45:17;;;;;;;11.95;5.80;;;;;;;;;;4214188;28;20281;-86
2022/06/23 06:47:25;;;;;;;7.60;5.40;;;17.90;99.90;;;;;;4213802;28;20405;-85
2022/06/23 06:49:29;;;;;;;10.40;5.68;;;18.10;99.90;;;;;;4215225;28;20423;-85
2022/06/23 06:51:32;;;;;;;9.60;5.13;;;17.90;99.90;;;;;;4219637;28;20072;-85
2022/06/23 06:53:39;;;;;;;8.07;5.32;;;18.20;99.90;;;;;;4196708;28;20045;-86
2022/06/23 06:55:50;;;;;;;8.82;5.47;;;18.40;99.90;;;;;;4215130;28;20043;-85
2022/06/23 06:58:15;;;;;;;8.60;5.18;;;18.50;99.90;;;;;;4214832;28;20040;-86
2022/06/23 07:00:42;;;;;;;7.43;4.68;;;18.60;99.90;;;;;;4225344;28;20096;-85
2022/06/23 07:02:48;;;;;;;11.18;5.72;;;18.60;99.90;;;;;;4228319;28;20048;-86
2022/06/23 07:05:02;;;;;;;9.13;5.00;;;18.80;99.90;;;;;;4231528;28;20060;-86
2022/06/23 07:07:07;;;;;;;9.85;5.47;;;18.80;99.90;;;;;;4230344;28;20130;-86
2022/06/23 07:09:34;;;;;;;8.73;5.00;;;18.90;99.90;;;;;;4230122;28;20533;-86
2022/06/23 07:12:01;;;;;;;8.65;5.03;;;18.90;99.90;;;;;;4229697;28;20044;-86
2022/06/23 07:14:21;;;;;;;9.75;4.68;;;;;;;;;;4225628;28;20177;-86
2022/06/23 07:16:35;;;;;;;8.43;4.55;;;;;;;;;;4230271;28;20104;-86
2022/06/23 07:18:56;;;;;;;7.25;5.15;;;;;;;;;;4229585;28;20039;-86
2022/06/23 07:21:05;;;;;;;10.68;5.35;;;19.00;99.90;;;;;;4214441;28;20040;-86
2022/06/23 07:23:29;;;;;;;;;;;19.40;99.90;;;;;;4213569;28;20052;-86
2022/06/23 07:25:35;;;;;;;7.95;4.15;;;19.50;99.90;;;;;;4204074;28;19927;-86
2022/06/23 07:28:14;;;;;;;10.05;5.57;;;19.60;99.90;;;;;;4214249;28;20082;-86
2022/06/23 07:30:28;;;;;;;10.77;4.30;;;19.70;99.90;;;;;;4207688;28;20059;-86
2022/06/23 07:32:38;;;;;;;9.32;4.55;;;19.80;99.90;;;;;;4213137;28;20500;-86
2022/06/23 07:34:45;;;;;;;9.15;4.50;;;19.90;99.90;;;;;;4213170;28;20084;-86
2022/06/23 07:36:52;;;;;;;8.65;3.55;;;19.80;99.90;;;;;;4214078;28;20075;-86
2022/06/23 07:39:09;;;;;;;9.05;4.07;;;20.00;99.90;;;;;;4196264;28;20492;-86
2022/06/23 07:41:29;;;;;;;8.07;4.32;;;20.10;99.90;;;;;;4214739;28;20047;-86
2022/06/23 07:43:47;;;;;;;8.45;4.55;;;20.30;99.90;;;;;;4216450;28;20080;-86
2022/06/23 07:45:58;;;;;;;11.38;5.38;;;20.30;99.40;;;;;;4216382;28;20500;-87
2022/06/23 07:47:59;;;;;;;6.95;4.38;;;20.30;99.90;;;;;;4217525;28;20051;-85
2022/06/23 07:50:01;;;;;;;6.57;3.95;;;20.30;99.60;;;;;;4217564;28;20048;-86
2022/06/23 07:52:03;;;;;;;6.72;4.07;;;20.40;99.60;;;;;;4222482;28;20048;-86
2022/06/23 07:54:06;;;;;;;7.65;4.00;;;20.40;99.60;;;;;;4233037;28;20504;-86
2022/06/23 07:56:12;;;;;;;6.95;4.88;;;20.60;99.50;;;;;;4234429;28;20088;-86
2022/06/23 07:58:17;;;;;;;6.82;4.97;;;20.70;99.20;;;;;;4234943;28;20488;-86
2022/06/23 08:00:18;;;;;;;9.80;4.28;;;20.80;99.00;;;;;;4233171;28;20051;-86
2022/06/23 08:02:28;;;;;;;6.50;4.47;;;20.90;99.00;;;;;;4234879;28;20477;-86
2022/06/23 08:04:58;;;;;;;11.48;4.03;;;21.10;98.80;;;;;;4234670;28;20118;-87
2022/06/23 08:07:04;;;;;;;10.15;4.38;;;21.30;98.70;;;;;;4230825;28;20047;-87
2022/06/23 08:09:25;;;;;;;9.10;4.32;;;21.50;98.20;;;;;;4234748;28;20106;-88
2022/06/23 08:14:19;;;;;;;12.88;4.70;;;21.60;98.20;;;;;;4233564;27;20087;-87
2022/06/23 08:19:15;;;;;;;8.25;4.45;;;22.00;97.70;;;;;;4232511;28;20122;-87
2022/06/23 08:21:24;;;;;;;7.60;4.00;;;22.20;97.00;;;;;;4217566;28;20054;-87
2022/06/23 08:23:29;;;;;;;10.57;4.35;;;22.30;97.00;;;;;;4217757;28;20047;-87
2022/06/23 08:25:30;;;;;;;7.55;4.38;;;22.40;97.10;;;;;;4216293;28;20482;-86
2022/06/23 08:27:31;;;;;;;7.35;4.28;;;22.50;96.90;;;;;;4217209;28;20048;-87
2022/06/23 08:29:43;;;;;;;7.18;3.80;;;22.60;96.60;;;;;;4216519;28;20485;-86
2022/06/23 08:31:44;;;;;;;5.95;3.70;;;22.80;96.40;;;;;;4227076;28;20418;-87
2022/06/23 08:33:45;;;;;;;6.85;4.30;;;23.10;96.10;;;;;;4215724;28;20123;-85
2022/06/23 08:35:50;;;;;;;6.68;3.75;;;23.20;95.60;;;;;;4216583;28;20036;-84
2022/06/23 08:38:01;;;;;;;9.57;4.10;;;23.40;95.10;;;;;;4223693;28;20055;-83
2022/06/23 08:40:14;;;;;;;7.88;4.05;;;23.50;94.80;;;;;;4225478;28;20514;-83
2022/06/23 08:42:27;;;;;;;9.27;4.22;;;23.70;94.50;;;;;;4224632;28;20545;-83
2022/06/23 08:44:52;;;;;;;6.72;3.60;;;23.90;93.80;;;;;;4197503;28;20052;-83
2022/06/23 08:47:09;;;;;;;6.10;3.95;;;24.00;93.50;;;;;;4216399;28;20044;-83
2022/06/23 08:49:19;;;;;;;4.80;3.47;;;24.20;91.80;;;;;;4228149;28;20044;-83
2022/06/23 08:51:40;;;;;;;6.22;3.20;;;24.30;92.40;;;;;;4233697;28;20040;-83
2022/06/23 08:53:59;;;;;;;8.32;4.03;;;24.40;90.90;;;;;;4233341;28;20039;-83
2022/06/23 08:56:03;;;;;;;8.32;3.78;;;24.60;91.40;;;;;;4233130;28;20047;-83
2022/06/23 08:58:11;;;;;;;6.35;3.15;;;;;;;;;;4231784;28;20534;-83
2022/06/23 09:00:20;;;;;;;7.07;3.83;;;24.60;91.00;;;;;;4232914;28;20051;-84
2022/06/23 09:02:29;;;;;;;5.28;3.65;;;24.70;87.50;;;;;;4216023;28;20630;-84
2022/06/23 09:04:49;;;;;;;9.15;3.70;;;24.80;90.60;;;;;;4215636;28;20087;-83
2022/06/23 09:06:54;;;;;;;11.55;4.20;;;25.10;90.90;;;;;;4215528;28;20051;-84
2022/06/23 09:09:09;;;;;;;3.55;3.05;;;25.30;90.80;;;;;;4216440;28;20498;-86
2022/06/23 09:11:41;;;;;;;5.25;3.30;;;25.40;90.00;;;;;;4216948;28;20119;-84
2022/06/23 09:14:22;;;;;;;6.75;3.38;;;25.50;88.50;;;;;;4216090;28;20434;-83
2022/06/23 09:16:50;;;;;;;8.52;3.17;;;25.70;88.10;;;;;;4214582;28;20070;-83
2022/06/23 09:18:57;;;;;;;5.63;3.20;;;25.90;87.30;;;;;;4225242;28;20093;-83
2022/06/23 09:21:31;;;;;;;6.82;3.30;;;26.10;87.50;;;;;;4224661;28;20048;-83
2022/06/23 09:23:57;;;;;;;5.65;3.15;;;26.20;85.10;;;;;;4217578;28;20044;-84
2022/06/23 09:26:18;;;;;;;9.45;3.15;;;26.40;83.50;;;;;;4219268;28;20047;-84
2022/06/23 09:28:28;;;;;;;6.25;2.50;;;26.50;83.50;;;;;;4232608;28;20044;-84
2022/06/23 09:30:45;;;;;;;6.13;2.25;;;26.70;83.60;;;;;;4232690;28;20050;-84
2022/06/23 09:32:56;;;;;;;5.65;3.15;;;27.00;81.00;;;;;;4232205;28;20127;-83
2022/06/23 09:35:26;;;;;;;8.07;3.22;;;27.20;81.50;;;;;;4226305;28;20048;-83
2022/06/23 09:37:51;;;;;;;5.18;2.45;;;27.30;79.50;;;;;;4221199;28;20051;-85
2022/06/23 09:40:19;;;;;;;5.93;2.72;;;27.60;75.40;;;;;;4218881;28;20765;-84
2022/06/23 09:42:32;;;;;;;7.30;3.05;;;27.60;76.60;;;;;;4217362;28;20119;-84
2022/06/23 09:44:36;;;;;;;3.38;2.50;;;;;;;;;;4216236;28;20438;-84
2022/06/23 09:46:56;;;;;;;6.78;2.70;;;27.90;74.80;;;;;;4228810;28;20127;-84
2022/06/23 09:49:26;;;;;;;5.32;2.47;;;28.10;74.40;;;;;;4226933;28;20044;-84
2022/06/23 09:51:40;;;;;;;5.30;2.13;;;28.10;73.00;;;;;;4223331;28;20126;-84
2022/06/23 09:53:53;;;;;;;3.65;2.28;;;28.20;74.30;;;;;;4219875;28;20084;-83
2022/06/23 09:56:13;;;;;;;5.82;2.22;;;28.50;73.50;;;;;;4221580;28;20048;-84
2022/06/23 09:58:54;;;;;;;4.00;2.50;;;28.70;72.30;;;;;;4229002;28;20047;-84
2022/06/23 10:01:23;;;;;;;4.80;2.00;;;29.00;66.70;;;;;;4219630;28;20052;-84
2022/06/23 10:03:35;;;;;;;4.53;2.53;;;29.00;71.50;;;;;;4227844;28;20040;-83
2022/06/23 10:05:57;;;;;;;4.30;1.90;;;29.00;69.80;;;;;;4224100;28;20051;-84
2022/06/23 10:08:23;;;;;;;3.45;2.28;;;29.10;64.00;;;;;;4226375;28;20407;-84
2022/06/23 10:10:33;;;;;;;4.22;2.42;;;29.40;66.20;;;;;;4218464;28;20043;-84
2022/06/23 10:13:08;;;;;;;3.78;2.10;;;29.50;66.90;;;;;;4216813;28;20039;-83
2022/06/23 10:15:39;;;;;;;4.25;1.88;;;29.60;61.00;;;;;;4214234;28;20040;-84
2022/06/23 10:17:49;;;;;;;6.20;1.70;;;29.70;56.30;;;;;;4222026;28;20044;-84
2022/06/23 10:19:58;;;;;;;5.53;2.15;;;29.60;61.50;;;;;;4221302;28;20488;-84
2022/06/23 10:22:25;;;;;;;4.32;1.80;;;29.60;62.00;;;;;;4225620;28;20051;-84
2022/06/23 10:24:35;;;;;;;8.55;2.00;;;29.70;59.40;;;;;;4225719;28;20628;-84
2022/06/23 10:27:03;;;;;;;4.78;2.03;;;29.80;59.20;;;;;;4214561;28;20056;-84
2022/06/23 10:29:24;;;;;;;5.75;1.92;;;29.90;57.10;;;;;;4217382;28;20074;-84
2022/06/23 10:31:28;;;;;;;6.25;1.90;;;30.00;60.90;;;;;;4220168;28;20051;-84
2022/06/23 10:33:53;;;;;;;4.07;2.13;;;30.30;61.50;;;;;;4205827;28;20084;-84
2022/06/23 10:36:18;;;;;;;5.32;1.85;;;30.40;59.70;;;;;;4223696;28;20475;-84
2022/06/23 10:38:25;;;;;;;3.75;1.83;;;30.30;58.80;;;;;;4225931;28;20506;-84
2022/06/23 10:40:38;;;;;;;3.95;1.80;;;30.50;58.90;;;;;;4226896;28;20036;-84
2022/06/23 10:42:46;;;;;;;4.80;1.60;;;30.60;55.20;;;;;;4225784;28;20399;-84
2022/06/23 10:45:02;;;;;;;2.80;1.17;;;30.80;57.70;;;;;;4217134;28;20575;-84
2022/06/23 10:47:36;;;;;;;2.50;1.30;;;30.70;52.40;;;;;;4228112;28;20141;-84
2022/06/23 10:49:58;;;;;;;2.08;1.50;;;30.70;54.70;;;;;;4218527;28;20476;-84
2022/06/23 10:52:22;;;;;;;3.70;1.83;;;30.70;51.60;;;;;;4221773;28;20035;-84
2022/06/23 10:54:47;;;;;;;2.63;1.42;;;30.70;51.80;;;;;;4224758;28;20050;-84
2022/06/23 10:57:00;;;;;;;4.30;1.70;;;30.10;48.20;;;;;;4225647;28;20039;-84
2022/06/23 10:59:21;;;;;;;2.45;1.35;;;30.20;51.20;;;;;;4227559;28;20040;-84
2022/06/23 11:01:43;;;;;;;5.20;1.70;;;30.30;52.80;;;;;;4215114;28;20766;-84
2022/06/23 11:04:22;;;;;;;3.28;1.50;;;30.50;50.00;;;;;;4224116;28;20048;-84
2022/06/23 11:06:46;;;;;;;3.45;1.30;;;30.60;51.50;;;;;;4215488;28;20032;-84
2022/06/23 11:09:11;;;;;;;4.65;1.50;;;30.70;52.60;;;;;;4223849;28;20534;-84
2022/06/23 11:11:12;;;;;;;2.30;1.77;;;;;;;;;;4216313;28;20516;-84
2022/06/23 11:13:14;;;;;;;2.33;1.98;;;;;;;;;;4225936;28;20043;-84
2022/06/23 11:15:33;;;;;;;1.33;1.23;;;;;;;;;;4227869;28;20111;-84
2022/06/23 11:17:37;;;;;;;5.45;1.73;;;;;;;;;;4215459;28;20097;-84
2022/06/23 11:19:42;;;;;;;2.40;1.33;;;;;;;;;;4225883;28;20070;-84
2022/06/23 11:21:49;;;;;;;6.25;1.58;;;;;;;;;;4216483;28;20043;-84
2022/06/23 11:24:17;;;;;;;4.75;1.58;;;;;;;;;;4225839;28;20520;-84
2022/06/23 11:26:27;;;;;;;2.00;1.25;;;;;;;;;;4225977;28;20757;-84
2022/06/23 11:28:43;;;;;;;6.95;2.08;;;30.90;51.50;;;;;;4217773;28;20055;-84
2022/06/23 11:30:56;;;;;;;1.30;1.20;;;;;;;;;;4216843;28;20119;-84
2022/06/23 11:32:57;;;;;;;5.53;1.63;;;;;;;;;;4200076;28;20535;-84
2022/06/23 11:35:05;;;;;;;1.63;1.15;;;;;;;;;;4224515;28;20039;-84
2022/06/23 11:37:06;;;;;;;4.35;1.58;;;;;;;;;;4226067;28;20051;-84
2022/06/23 11:39:20;;;;;;;4.78;1.60;;;;;;;;;;4226438;28;20051;-84
2022/06/23 11:41:26;;;;;;;3.70;1.50;;;;;;;;;;4212101;28;20056;-84
2022/06/23 11:43:28;;;;;;;2.65;1.38;;;;;;;;;;4223586;28;20575;-84
2022/06/23 11:45:34;;;;;;;2.38;1.30;;;;;;;;;;4226199;28;20061;-84
2022/06/23 11:47:45;;;;;;;3.15;2.17;;;;;;;;;;4226934;28;20040;-83
2022/06/23 11:49:47;;;;;;;3.97;1.60;;;;;;;;;;4216236;28;20874;-83
2022/06/23 11:51:57;;;;;;;4.13;1.42;;;;;;;;;;4215869;28;20460;-83
2022/06/23 11:54:13;;;;;;;4.32;1.98;;;;;;;;;;4216005;28;20044;-83
2022/06/23 11:56:14;;;;;;;4.63;1.48;;;;;;;;;;4217276;28;20400;-84
2022/06/23 11:58:22;;;;;;;2.30;1.50;;;;;;;;;;4216330;28;20039;-83
2022/06/23 12:00:28;;;;;;;6.17;1.13;;;;;;;;;;4214896;28;20074;-84
2022/06/23 12:02:33;;;;;;;3.40;1.60;;;;;;;;;;4224761;28;20048;-84